sensor_id;sensor_type;location;lat;lon;timestamp;P1;durP1;ratioP1;P2;durP2;ratioP2
24663;SDS011;12791;50.992;13.788;2023-04-15T00:01:22;0.95;;;0.70;;
24663;SDS011;12791;50.992;13.788;2023-04-15T00:03:49;0.80;;;0.80;;
24663;SDS011;12791;50.992;13.788;2023-04-15T00:06:17;0.70;;;0.70;;
24663;SDS011;12791;50.992;13.788;2023-04-15T00:08:44;0.60;;;0.60;;
24663;SDS011;12791;50.992;13.788;2023-04-15T00:11:11;0.50;;;0.50;;
24663;SDS011;12791;50.992;13.788;2023-04-15T00:13:39;0.70;;;0.60;;
24663;SDS011;12791;50.992;13.788;2023-04-15T00:16:07;0.50;;;0.50;;
24663;SDS011;12791;50.992;13.788;2023-04-15T00:18:34;0.65;;;0.65;;
24663;SDS011;12791;50.992;13.788;2023-04-15T00:21:03;0.60;;;0.60;;
24663;SDS011;12791;50.992;13.788;2023-04-15T00:23:30;0.40;;;0.40;;
24663;SDS011;12791;50.992;13.788;2023-04-15T00:25:56;0.50;;;0.50;;
24663;SDS011;12791;50.992;13.788;2023-04-15T00:28:23;0.60;;;0.60;;
24663;SDS011;12791;50.992;13.788;2023-04-15T00:30:51;0.50;;;0.50;;
24663;SDS011;12791;50.992;13.788;2023-04-15T00:33:18;0.60;;;0.60;;
24663;SDS011;12791;50.992;13.788;2023-04-15T00:35:44;0.50;;;0.50;;
24663;SDS011;12791;50.992;13.788;2023-04-15T00:38:11;0.60;;;0.60;;
24663;SDS011;12791;50.992;13.788;2023-04-15T00:40:38;0.85;;;0.60;;
24663;SDS011;12791;50.992;13.788;2023-04-15T00:43:05;0.93;;;0.60;;
24663;SDS011;12791;50.992;13.788;2023-04-15T00:45:32;0.60;;;0.60;;
24663;SDS011;12791;50.992;13.788;2023-04-15T00:47:59;0.60;;;0.60;;
24663;SDS011;12791;50.992;13.788;2023-04-15T00:50:26;0.60;;;0.60;;
24663;SDS011;12791;50.992;13.788;2023-04-15T00:52:53;0.68;;;0.60;;
24663;SDS011;12791;50.992;13.788;2023-04-15T00:55:20;0.55;;;0.55;;
24663;SDS011;12791;50.992;13.788;2023-04-15T00:57:47;0.60;;;0.60;;
24663;SDS011;12791;50.992;13.788;2023-04-15T01:00:13;0.60;;;0.60;;
24663;SDS011;12791;50.992;13.788;2023-04-15T01:02:40;0.60;;;0.60;;
24663;SDS011;12791;50.992;13.788;2023-04-15T01:05:08;0.50;;;0.50;;
24663;SDS011;12791;50.992;13.788;2023-04-15T01:07:35;0.45;;;0.45;;
24663;SDS011;12791;50.992;13.788;2023-04-15T01:10:02;0.60;;;0.60;;
24663;SDS011;12791;50.992;13.788;2023-04-15T01:12:29;0.60;;;0.60;;
24663;SDS011;12791;50.992;13.788;2023-04-15T01:14:59;0.40;;;0.40;;
24663;SDS011;12791;50.992;13.788;2023-04-15T01:17:26;0.55;;;0.55;;
24663;SDS011;12791;50.992;13.788;2023-04-15T01:19:54;0.60;;;0.60;;
24663;SDS011;12791;50.992;13.788;2023-04-15T01:22:22;0.50;;;0.50;;
24663;SDS011;12791;50.992;13.788;2023-04-15T01:24:53;0.60;;;0.60;;
24663;SDS011;12791;50.992;13.788;2023-04-15T01:27:24;0.52;;;0.52;;
24663;SDS011;12791;50.992;13.788;2023-04-15T01:29:51;0.65;;;0.60;;
24663;SDS011;12791;50.992;13.788;2023-04-15T01:32:17;0.50;;;0.50;;
24663;SDS011;12791;50.992;13.788;2023-04-15T01:34:44;0.80;;;0.55;;
24663;SDS011;12791;50.992;13.788;2023-04-15T01:37:11;0.73;;;0.73;;
24663;SDS011;12791;50.992;13.788;2023-04-15T01:39:38;0.68;;;0.68;;
24663;SDS011;12791;50.992;13.788;2023-04-15T01:42:05;0.77;;;0.77;;
24663;SDS011;12791;50.992;13.788;2023-04-15T01:44:33;0.70;;;0.70;;
24663;SDS011;12791;50.992;13.788;2023-04-15T01:46:59;0.60;;;0.60;;
24663;SDS011;12791;50.992;13.788;2023-04-15T01:49:26;0.70;;;0.70;;
24663;SDS011;12791;50.992;13.788;2023-04-15T01:51:53;0.70;;;0.70;;
24663;SDS011;12791;50.992;13.788;2023-04-15T01:54:23;0.60;;;0.60;;
24663;SDS011;12791;50.992;13.788;2023-04-15T01:56:49;0.90;;;0.90;;
24663;SDS011;12791;50.992;13.788;2023-04-15T01:59:16;0.60;;;0.60;;
24663;SDS011;12791;50.992;13.788;2023-04-15T02:01:44;0.80;;;0.80;;
24663;SDS011;12791;50.992;13.788;2023-04-15T02:04:10;0.80;;;0.80;;
24663;SDS011;12791;50.992;13.788;2023-04-15T02:06:40;0.55;;;0.55;;
24663;SDS011;12791;50.992;13.788;2023-04-15T02:09:07;0.63;;;0.63;;
24663;SDS011;12791;50.992;13.788;2023-04-15T02:11:34;0.70;;;0.70;;
24663;SDS011;12791;50.992;13.788;2023-04-15T02:14:01;1.38;;;0.90;;
24663;SDS011;12791;50.992;13.788;2023-04-15T02:16:28;0.90;;;0.90;;
24663;SDS011;12791;50.992;13.788;2023-04-15T02:18:56;0.85;;;0.80;;
24663;SDS011;12791;50.992;13.788;2023-04-15T02:21:22;0.80;;;0.80;;
24663;SDS011;12791;50.992;13.788;2023-04-15T02:23:51;0.80;;;0.80;;
24663;SDS011;12791;50.992;13.788;2023-04-15T02:26:18;1.58;;;0.82;;
24663;SDS011;12791;50.992;13.788;2023-04-15T02:28:45;0.70;;;0.70;;
24663;SDS011;12791;50.992;13.788;2023-04-15T02:31:12;0.80;;;0.80;;
24663;SDS011;12791;50.992;13.788;2023-04-15T02:33:38;0.60;;;0.60;;
24663;SDS011;12791;50.992;13.788;2023-04-15T02:36:07;0.60;;;0.60;;
24663;SDS011;12791;50.992;13.788;2023-04-15T02:38:35;0.60;;;0.60;;
24663;SDS011;12791;50.992;13.788;2023-04-15T02:41:04;0.50;;;0.50;;
24663;SDS011;12791;50.992;13.788;2023-04-15T02:43:31;0.50;;;0.50;;
24663;SDS011;12791;50.992;13.788;2023-04-15T02:45:57;0.50;;;0.50;;
24663;SDS011;12791;50.992;13.788;2023-04-15T02:48:24;1.15;;;0.60;;
24663;SDS011;12791;50.992;13.788;2023-04-15T02:50:51;1.13;;;0.60;;
24663;SDS011;12791;50.992;13.788;2023-04-15T02:53:19;0.60;;;0.60;;
24663;SDS011;12791;50.992;13.788;2023-04-15T02:55:46;0.77;;;0.77;;
24663;SDS011;12791;50.992;13.788;2023-04-15T02:58:12;0.70;;;0.70;;
24663;SDS011;12791;50.992;13.788;2023-04-15T03:00:39;0.77;;;0.77;;
24663;SDS011;12791;50.992;13.788;2023-04-15T03:03:05;0.80;;;0.80;;
24663;SDS011;12791;50.992;13.788;2023-04-15T03:05:32;0.90;;;0.88;;
24663;SDS011;12791;50.992;13.788;2023-04-15T03:07:59;0.75;;;0.70;;
24663;SDS011;12791;50.992;13.788;2023-04-15T03:10:28;1.63;;;0.75;;
24663;SDS011;12791;50.992;13.788;2023-04-15T03:12:55;1.30;;;0.88;;
24663;SDS011;12791;50.992;13.788;2023-04-15T03:15:21;0.88;;;0.75;;
24663;SDS011;12791;50.992;13.788;2023-04-15T03:17:48;0.70;;;0.70;;
24663;SDS011;12791;50.992;13.788;2023-04-15T03:20:15;0.68;;;0.68;;
24663;SDS011;12791;50.992;13.788;2023-04-15T03:22:41;1.15;;;0.50;;
24663;SDS011;12791;50.992;13.788;2023-04-15T03:25:08;0.63;;;0.63;;
24663;SDS011;12791;50.992;13.788;2023-04-15T03:27:36;0.52;;;0.52;;
24663;SDS011;12791;50.992;13.788;2023-04-15T03:30:03;1.02;;;0.70;;
24663;SDS011;12791;50.992;13.788;2023-04-15T03:32:31;0.82;;;0.82;;
24663;SDS011;12791;50.992;13.788;2023-04-15T03:34:58;1.50;;;0.50;;
24663;SDS011;12791;50.992;13.788;2023-04-15T03:37:24;1.05;;;0.55;;
24663;SDS011;12791;50.992;13.788;2023-04-15T03:39:51;0.52;;;0.52;;
24663;SDS011;12791;50.992;13.788;2023-04-15T03:42:18;0.50;;;0.50;;
24663;SDS011;12791;50.992;13.788;2023-04-15T03:44:46;0.57;;;0.57;;
24663;SDS011;12791;50.992;13.788;2023-04-15T03:47:12;1.55;;;0.63;;
24663;SDS011;12791;50.992;13.788;2023-04-15T03:49:39;0.50;;;0.50;;
24663;SDS011;12791;50.992;13.788;2023-04-15T03:52:06;1.65;;;0.50;;
24663;SDS011;12791;50.992;13.788;2023-04-15T03:54:32;0.50;;;0.50;;
24663;SDS011;12791;50.992;13.788;2023-04-15T03:56:59;0.55;;;0.55;;
24663;SDS011;12791;50.992;13.788;2023-04-15T03:59:26;0.75;;;0.45;;
24663;SDS011;12791;50.992;13.788;2023-04-15T04:01:54;0.70;;;0.70;;
24663;SDS011;12791;50.992;13.788;2023-04-15T04:04:20;0.77;;;0.65;;
24663;SDS011;12791;50.992;13.788;2023-04-15T04:06:47;0.60;;;0.60;;
24663;SDS011;12791;50.992;13.788;2023-04-15T04:09:14;1.30;;;0.70;;
24663;SDS011;12791;50.992;13.788;2023-04-15T04:11:40;0.85;;;0.60;;
24663;SDS011;12791;50.992;13.788;2023-04-15T04:14:07;0.60;;;0.60;;
24663;SDS011;12791;50.992;13.788;2023-04-15T04:16:34;0.70;;;0.70;;
24663;SDS011;12791;50.992;13.788;2023-04-15T04:19:02;0.57;;;0.57;;
24663;SDS011;12791;50.992;13.788;2023-04-15T04:21:28;1.38;;;0.70;;
24663;SDS011;12791;50.992;13.788;2023-04-15T04:23:55;0.50;;;0.50;;
24663;SDS011;12791;50.992;13.788;2023-04-15T04:26:23;0.70;;;0.70;;
24663;SDS011;12791;50.992;13.788;2023-04-15T04:28:49;0.90;;;0.90;;
24663;SDS011;12791;50.992;13.788;2023-04-15T04:31:16;1.48;;;0.80;;
24663;SDS011;12791;50.992;13.788;2023-04-15T04:33:43;0.85;;;0.80;;
24663;SDS011;12791;50.992;13.788;2023-04-15T04:36:11;0.70;;;0.63;;
24663;SDS011;12791;50.992;13.788;2023-04-15T04:38:38;0.60;;;0.60;;
24663;SDS011;12791;50.992;13.788;2023-04-15T04:41:04;0.77;;;0.77;;
24663;SDS011;12791;50.992;13.788;2023-04-15T04:43:31;0.80;;;0.80;;
24663;SDS011;12791;50.992;13.788;2023-04-15T04:45:58;0.82;;;0.82;;
24663;SDS011;12791;50.992;13.788;2023-04-15T04:48:24;0.82;;;0.82;;
24663;SDS011;12791;50.992;13.788;2023-04-15T04:50:51;0.70;;;0.70;;
24663;SDS011;12791;50.992;13.788;2023-04-15T04:53:19;0.85;;;0.77;;
24663;SDS011;12791;50.992;13.788;2023-04-15T04:55:45;0.80;;;0.80;;
24663;SDS011;12791;50.992;13.788;2023-04-15T04:58:12;0.60;;;0.60;;
24663;SDS011;12791;50.992;13.788;2023-04-15T05:00:39;0.60;;;0.60;;
24663;SDS011;12791;50.992;13.788;2023-04-15T05:03:06;0.70;;;0.70;;
24663;SDS011;12791;50.992;13.788;2023-04-15T05:05:32;0.70;;;0.70;;
24663;SDS011;12791;50.992;13.788;2023-04-15T05:08:00;1.42;;;1.13;;
24663;SDS011;12791;50.992;13.788;2023-04-15T05:10:28;0.85;;;0.80;;
24663;SDS011;12791;50.992;13.788;2023-04-15T05:12:55;1.10;;;0.95;;
24663;SDS011;12791;50.992;13.788;2023-04-15T05:15:22;1.58;;;1.10;;
24663;SDS011;12791;50.992;13.788;2023-04-15T05:17:48;1.20;;;1.10;;
24663;SDS011;12791;50.992;13.788;2023-04-15T05:20:15;1.00;;;0.88;;
24663;SDS011;12791;50.992;13.788;2023-04-15T05:22:42;1.00;;;0.90;;
24663;SDS011;12791;50.992;13.788;2023-04-15T05:25:09;0.95;;;0.85;;
24663;SDS011;12791;50.992;13.788;2023-04-15T05:27:37;1.40;;;0.82;;
24663;SDS011;12791;50.992;13.788;2023-04-15T05:30:04;0.50;;;0.50;;
24663;SDS011;12791;50.992;13.788;2023-04-15T05:32:31;0.50;;;0.50;;
24663;SDS011;12791;50.992;13.788;2023-04-15T05:34:58;0.40;;;0.40;;
24663;SDS011;12791;50.992;13.788;2023-04-15T05:37:25;0.40;;;0.40;;
24663;SDS011;12791;50.992;13.788;2023-04-15T05:39:51;0.60;;;0.60;;
24663;SDS011;12791;50.992;13.788;2023-04-15T05:42:18;0.47;;;0.47;;
24663;SDS011;12791;50.992;13.788;2023-04-15T05:44:46;0.60;;;0.50;;
24663;SDS011;12791;50.992;13.788;2023-04-15T05:47:13;0.30;;;0.30;;
24663;SDS011;12791;50.992;13.788;2023-04-15T05:49:39;0.30;;;0.30;;
24663;SDS011;12791;50.992;13.788;2023-04-15T05:52:06;0.30;;;0.30;;
24663;SDS011;12791;50.992;13.788;2023-04-15T05:54:33;0.57;;;0.22;;
24663;SDS011;12791;50.992;13.788;2023-04-15T05:57:00;0.60;;;0.40;;
24663;SDS011;12791;50.992;13.788;2023-04-15T05:59:27;0.73;;;0.40;;
24663;SDS011;12791;50.992;13.788;2023-04-15T06:01:55;0.60;;;0.45;;
24663;SDS011;12791;50.992;13.788;2023-04-15T06:04:22;0.93;;;0.40;;
24663;SDS011;12791;50.992;13.788;2023-04-15T06:06:48;0.30;;;0.30;;
24663;SDS011;12791;50.992;13.788;2023-04-15T06:09:15;0.20;;;0.20;;
24663;SDS011;12791;50.992;13.788;2023-04-15T06:11:41;0.40;;;0.20;;
24663;SDS011;12791;50.992;13.788;2023-04-15T06:14:08;0.20;;;0.20;;
24663;SDS011;12791;50.992;13.788;2023-04-15T06:16:35;0.20;;;0.20;;
24663;SDS011;12791;50.992;13.788;2023-04-15T06:19:03;0.10;;;0.10;;
24663;SDS011;12791;50.992;13.788;2023-04-15T06:21:29;1.10;;;0.10;;
24663;SDS011;12791;50.992;13.788;2023-04-15T06:23:57;0.10;;;0.10;;
24663;SDS011;12791;50.992;13.788;2023-04-15T06:26:24;0.20;;;0.20;;
24663;SDS011;12791;50.992;13.788;2023-04-15T06:28:51;0.10;;;0.10;;
24663;SDS011;12791;50.992;13.788;2023-04-15T06:31:17;0.63;;;0.30;;
24663;SDS011;12791;50.992;13.788;2023-04-15T06:33:44;0.30;;;0.30;;
24663;SDS011;12791;50.992;13.788;2023-04-15T06:36:12;1.67;;;0.20;;
24663;SDS011;12791;50.992;13.788;2023-04-15T06:38:39;1.30;;;0.30;;
24663;SDS011;12791;50.992;13.788;2023-04-15T06:41:06;0.73;;;0.40;;
24663;SDS011;12791;50.992;13.788;2023-04-15T06:43:32;0.20;;;0.20;;
24663;SDS011;12791;50.992;13.788;2023-04-15T06:45:59;0.30;;;0.30;;
24663;SDS011;12791;50.992;13.788;2023-04-15T06:48:26;0.20;;;0.20;;
24663;SDS011;12791;50.992;13.788;2023-04-15T06:50:52;1.00;;;0.30;;
24663;SDS011;12791;50.992;13.788;2023-04-15T06:53:21;0.30;;;0.30;;
24663;SDS011;12791;50.992;13.788;2023-04-15T06:55:48;1.10;;;0.38;;
24663;SDS011;12791;50.992;13.788;2023-04-15T06:58:14;0.25;;;0.20;;
24663;SDS011;12791;50.992;13.788;2023-04-15T07:00:41;0.95;;;0.38;;
24663;SDS011;12791;50.992;13.788;2023-04-15T07:03:08;0.30;;;0.30;;
24663;SDS011;12791;50.992;13.788;2023-04-15T07:05:36;1.20;;;0.40;;
24663;SDS011;12791;50.992;13.788;2023-04-15T07:08:03;0.63;;;0.38;;
24663;SDS011;12791;50.992;13.788;2023-04-15T07:10:32;0.85;;;0.20;;
24663;SDS011;12791;50.992;13.788;2023-04-15T07:12:58;0.20;;;0.20;;
24663;SDS011;12791;50.992;13.788;2023-04-15T07:15:26;0.60;;;0.38;;
24663;SDS011;12791;50.992;13.788;2023-04-15T07:17:52;0.30;;;0.30;;
24663;SDS011;12791;50.992;13.788;2023-04-15T07:20:20;1.85;;;0.40;;
24663;SDS011;12791;50.992;13.788;2023-04-15T07:22:46;0.50;;;0.50;;
24663;SDS011;12791;50.992;13.788;2023-04-15T07:25:13;0.57;;;0.38;;
24663;SDS011;12791;50.992;13.788;2023-04-15T07:27:41;0.40;;;0.40;;
24663;SDS011;12791;50.992;13.788;2023-04-15T07:30:08;0.50;;;0.50;;
24663;SDS011;12791;50.992;13.788;2023-04-15T07:32:36;0.60;;;0.47;;
24663;SDS011;12791;50.992;13.788;2023-04-15T07:35:03;0.50;;;0.50;;
24663;SDS011;12791;50.992;13.788;2023-04-15T07:37:30;0.85;;;0.65;;
24663;SDS011;12791;50.992;13.788;2023-04-15T07:39:57;0.90;;;0.80;;
24663;SDS011;12791;50.992;13.788;2023-04-15T07:42:24;1.17;;;0.90;;
24663;SDS011;12791;50.992;13.788;2023-04-15T07:44:52;0.80;;;0.80;;
24663;SDS011;12791;50.992;13.788;2023-04-15T07:47:19;0.60;;;0.60;;
24663;SDS011;12791;50.992;13.788;2023-04-15T07:49:46;1.55;;;0.85;;
24663;SDS011;12791;50.992;13.788;2023-04-15T07:52:12;0.77;;;0.77;;
24663;SDS011;12791;50.992;13.788;2023-04-15T07:54:39;1.00;;;1.00;;
24663;SDS011;12791;50.992;13.788;2023-04-15T07:57:05;0.70;;;0.70;;
24663;SDS011;12791;50.992;13.788;2023-04-15T07:59:32;0.70;;;0.70;;
24663;SDS011;12791;50.992;13.788;2023-04-15T08:02:00;0.60;;;0.60;;
24663;SDS011;12791;50.992;13.788;2023-04-15T08:04:27;0.60;;;0.60;;
24663;SDS011;12791;50.992;13.788;2023-04-15T08:06:55;0.68;;;0.68;;
24663;SDS011;12791;50.992;13.788;2023-04-15T08:09:22;0.60;;;0.60;;
24663;SDS011;12791;50.992;13.788;2023-04-15T08:11:48;0.55;;;0.55;;
24663;SDS011;12791;50.992;13.788;2023-04-15T08:14:15;0.60;;;0.60;;
24663;SDS011;12791;50.992;13.788;2023-04-15T08:16:42;2.25;;;0.60;;
24663;SDS011;12791;50.992;13.788;2023-04-15T08:19:10;0.68;;;0.68;;
24663;SDS011;12791;50.992;13.788;2023-04-15T08:21:36;0.60;;;0.60;;
24663;SDS011;12791;50.992;13.788;2023-04-15T08:24:04;0.98;;;0.88;;
24663;SDS011;12791;50.992;13.788;2023-04-15T08:26:31;2.72;;;2.53;;
24663;SDS011;12791;50.992;13.788;2023-04-15T08:28:58;0.60;;;0.60;;
24663;SDS011;12791;50.992;13.788;2023-04-15T08:31:25;0.50;;;0.50;;
24663;SDS011;12791;50.992;13.788;2023-04-15T08:33:55;0.65;;;0.50;;
24663;SDS011;12791;50.992;13.788;2023-04-15T08:36:23;0.80;;;0.50;;
24663;SDS011;12791;50.992;13.788;2023-04-15T08:38:51;0.40;;;0.40;;
24663;SDS011;12791;50.992;13.788;2023-04-15T08:41:19;0.35;;;0.35;;
24663;SDS011;12791;50.992;13.788;2023-04-15T08:43:48;0.30;;;0.30;;
24663;SDS011;12791;50.992;13.788;2023-04-15T08:46:18;0.40;;;0.40;;
24663;SDS011;12791;50.992;13.788;2023-04-15T08:48:45;0.30;;;0.30;;
24663;SDS011;12791;50.992;13.788;2023-04-15T08:51:13;0.60;;;0.60;;
24663;SDS011;12791;50.992;13.788;2023-04-15T08:53:42;0.80;;;0.80;;
24663;SDS011;12791;50.992;13.788;2023-04-15T08:56:10;1.50;;;1.40;;
24663;SDS011;12791;50.992;13.788;2023-04-15T08:58:39;1.70;;;1.60;;
24663;SDS011;12791;50.992;13.788;2023-04-15T09:01:06;1.77;;;1.67;;
24663;SDS011;12791;50.992;13.788;2023-04-15T09:03:33;2.10;;;2.00;;
24663;SDS011;12791;50.992;13.788;2023-04-15T09:06:00;2.97;;;2.75;;
24663;SDS011;12791;50.992;13.788;2023-04-15T09:08:29;2.75;;;2.65;;
24663;SDS011;12791;50.992;13.788;2023-04-15T09:10:57;2.38;;;2.28;;
24663;SDS011;12791;50.992;13.788;2023-04-15T09:13:24;2.72;;;2.53;;
24663;SDS011;12791;50.992;13.788;2023-04-15T09:15:51;3.08;;;2.70;;
24663;SDS011;12791;50.992;13.788;2023-04-15T09:18:28;2.72;;;2.63;;
24663;SDS011;12791;50.992;13.788;2023-04-15T09:20:55;2.97;;;2.78;;
24663;SDS011;12791;50.992;13.788;2023-04-15T09:23:30;3.42;;;3.22;;
24663;SDS011;12791;50.992;13.788;2023-04-15T09:25:59;3.30;;;3.10;;
24663;SDS011;12791;50.992;13.788;2023-04-15T09:28:26;3.70;;;3.50;;
24663;SDS011;12791;50.992;13.788;2023-04-15T09:30:56;4.57;;;3.60;;
24663;SDS011;12791;50.992;13.788;2023-04-15T09:33:23;4.07;;;3.88;;
24663;SDS011;12791;50.992;13.788;2023-04-15T09:35:57;4.32;;;4.03;;
24663;SDS011;12791;50.992;13.788;2023-04-15T09:38:25;4.60;;;4.30;;
24663;SDS011;12791;50.992;13.788;2023-04-15T09:40:52;5.00;;;4.60;;
24663;SDS011;12791;50.992;13.788;2023-04-15T09:43:20;4.90;;;4.60;;
24663;SDS011;12791;50.992;13.788;2023-04-15T09:45:47;4.50;;;4.20;;
24663;SDS011;12791;50.992;13.788;2023-04-15T09:48:15;4.35;;;4.15;;
24663;SDS011;12791;50.992;13.788;2023-04-15T09:50:44;4.68;;;4.32;;
24663;SDS011;12791;50.992;13.788;2023-04-15T09:53:14;4.07;;;3.78;;
24663;SDS011;12791;50.992;13.788;2023-04-15T09:55:43;4.00;;;3.78;;
24663;SDS011;12791;50.992;13.788;2023-04-15T09:58:16;3.58;;;3.38;;
24663;SDS011;12791;50.992;13.788;2023-04-15T10:00:45;3.80;;;3.60;;
24663;SDS011;12791;50.992;13.788;2023-04-15T10:03:13;4.32;;;3.92;;
24663;SDS011;12791;50.992;13.788;2023-04-15T10:05:42;3.22;;;3.00;;
24663;SDS011;12791;50.992;13.788;2023-04-15T10:08:09;4.63;;;3.33;;
24663;SDS011;12791;50.992;13.788;2023-04-15T10:10:37;3.95;;;3.65;;
24663;SDS011;12791;50.992;13.788;2023-04-15T10:13:05;5.05;;;4.55;;
24663;SDS011;12791;50.992;13.788;2023-04-15T10:15:33;3.95;;;3.70;;
24663;SDS011;12791;50.992;13.788;2023-04-15T10:18:02;7.82;;;7.13;;
24663;SDS011;12791;50.992;13.788;2023-04-15T10:20:32;5.17;;;4.87;;
24663;SDS011;12791;50.992;13.788;2023-04-15T10:23:00;5.28;;;4.88;;
24663;SDS011;12791;50.992;13.788;2023-04-15T10:25:27;4.05;;;3.85;;
24663;SDS011;12791;50.992;13.788;2023-04-15T10:27:54;3.22;;;3.03;;
24663;SDS011;12791;50.992;13.788;2023-04-15T10:30:21;3.40;;;3.10;;
24663;SDS011;12791;50.992;13.788;2023-04-15T10:32:48;4.35;;;4.00;;
24663;SDS011;12791;50.992;13.788;2023-04-15T10:35:17;3.40;;;3.10;;
24663;SDS011;12791;50.992;13.788;2023-04-15T10:37:45;3.60;;;3.35;;
24663;SDS011;12791;50.992;13.788;2023-04-15T10:40:25;4.18;;;3.88;;
24663;SDS011;12791;50.992;13.788;2023-04-15T10:42:53;4.20;;;3.90;;
24663;SDS011;12791;50.992;13.788;2023-04-15T10:45:21;4.30;;;3.90;;
24663;SDS011;12791;50.992;13.788;2023-04-15T10:47:51;4.28;;;3.88;;
24663;SDS011;12791;50.992;13.788;2023-04-15T10:50:22;9.63;;;8.85;;
24663;SDS011;12791;50.992;13.788;2023-04-15T10:52:52;22.33;;;20.08;;
24663;SDS011;12791;50.992;13.788;2023-04-15T10:55:22;28.13;;;25.00;;
24663;SDS011;12791;50.992;13.788;2023-04-15T10:57:50;54.58;;;41.60;;
24663;SDS011;12791;50.992;13.788;2023-04-15T11:00:19;27.17;;;21.52;;
24663;SDS011;12791;50.992;13.788;2023-04-15T11:02:50;8.52;;;7.75;;
24663;SDS011;12791;50.992;13.788;2023-04-15T11:05:19;4.88;;;4.40;;
24663;SDS011;12791;50.992;13.788;2023-04-15T11:07:50;6.60;;;6.00;;
24663;SDS011;12791;50.992;13.788;2023-04-15T11:10:49;8.48;;;7.78;;
24663;SDS011;12791;50.992;13.788;2023-04-15T11:13:19;3.90;;;3.60;;
24663;SDS011;12791;50.992;13.788;2023-04-15T11:15:47;2.53;;;2.42;;
24663;SDS011;12791;50.992;13.788;2023-04-15T11:18:16;2.92;;;2.70;;
24663;SDS011;12791;50.992;13.788;2023-04-15T11:20:46;3.38;;;3.10;;
24663;SDS011;12791;50.992;13.788;2023-04-15T11:23:14;3.20;;;3.00;;
24663;SDS011;12791;50.992;13.788;2023-04-15T11:25:42;2.40;;;2.30;;
24663;SDS011;12791;50.992;13.788;2023-04-15T11:28:10;2.70;;;2.50;;
24663;SDS011;12791;50.992;13.788;2023-04-15T11:30:37;3.75;;;3.20;;
24663;SDS011;12791;50.992;13.788;2023-04-15T11:33:05;3.40;;;3.20;;
24663;SDS011;12791;50.992;13.788;2023-04-15T11:35:33;3.00;;;2.80;;
24663;SDS011;12791;50.992;13.788;2023-04-15T11:38:02;3.33;;;3.03;;
24663;SDS011;12791;50.992;13.788;2023-04-15T11:40:30;3.50;;;3.30;;
24663;SDS011;12791;50.992;13.788;2023-04-15T11:43:03;11.00;;;10.00;;
24663;SDS011;12791;50.992;13.788;2023-04-15T11:45:33;3.63;;;3.30;;
24663;SDS011;12791;50.992;13.788;2023-04-15T11:48:06;3.72;;;3.42;;
24663;SDS011;12791;50.992;13.788;2023-04-15T11:50:34;3.28;;;2.97;;
24663;SDS011;12791;50.992;13.788;2023-04-15T11:53:03;2.50;;;2.40;;
24663;SDS011;12791;50.992;13.788;2023-04-15T11:55:30;3.40;;;3.20;;
24663;SDS011;12791;50.992;13.788;2023-04-15T11:58:08;2.45;;;2.35;;
24663;SDS011;12791;50.992;13.788;2023-04-15T12:00:36;3.10;;;2.90;;
24663;SDS011;12791;50.992;13.788;2023-04-15T12:03:13;4.03;;;3.80;;
24663;SDS011;12791;50.992;13.788;2023-04-15T12:11:38;2.20;;;2.10;;
24663;SDS011;12791;50.992;13.788;2023-04-15T12:14:19;3.95;;;3.17;;
24663;SDS011;12791;50.992;13.788;2023-04-15T12:16:47;2.70;;;2.50;;
24663;SDS011;12791;50.992;13.788;2023-04-15T12:19:15;3.30;;;3.10;;
24663;SDS011;12791;50.992;13.788;2023-04-15T12:21:44;2.80;;;2.60;;
24663;SDS011;12791;50.992;13.788;2023-04-15T12:24:14;2.67;;;2.50;;
24663;SDS011;12791;50.992;13.788;2023-04-15T12:26:42;3.25;;;2.95;;
24663;SDS011;12791;50.992;13.788;2023-04-15T12:29:10;4.32;;;2.85;;
24663;SDS011;12791;50.992;13.788;2023-04-15T12:31:45;2.30;;;2.20;;
24663;SDS011;12791;50.992;13.788;2023-04-15T12:34:13;2.10;;;2.00;;
24663;SDS011;12791;50.992;13.788;2023-04-15T12:36:40;2.10;;;1.95;;
24663;SDS011;12791;50.992;13.788;2023-04-15T12:39:07;2.03;;;1.83;;
24663;SDS011;12791;50.992;13.788;2023-04-15T12:41:35;1.63;;;1.52;;
24663;SDS011;12791;50.992;13.788;2023-04-15T12:44:02;1.60;;;1.50;;
24663;SDS011;12791;50.992;13.788;2023-04-15T12:46:29;1.77;;;1.67;;
24663;SDS011;12791;50.992;13.788;2023-04-15T12:48:56;1.67;;;1.58;;
24663;SDS011;12791;50.992;13.788;2023-04-15T12:51:23;2.22;;;2.13;;
24663;SDS011;12791;50.992;13.788;2023-04-15T12:53:51;3.03;;;1.90;;
24663;SDS011;12791;50.992;13.788;2023-04-15T12:56:17;1.85;;;1.75;;
24663;SDS011;12791;50.992;13.788;2023-04-15T12:58:45;1.83;;;1.60;;
24663;SDS011;12791;50.992;13.788;2023-04-15T13:01:12;1.98;;;1.88;;
24663;SDS011;12791;50.992;13.788;2023-04-15T13:03:39;2.00;;;1.90;;
24663;SDS011;12791;50.992;13.788;2023-04-15T13:06:05;1.73;;;1.63;;
24663;SDS011;12791;50.992;13.788;2023-04-15T13:08:32;1.85;;;1.67;;
24663;SDS011;12791;50.992;13.788;2023-04-15T13:10:59;1.65;;;1.55;;
24663;SDS011;12791;50.992;13.788;2023-04-15T13:13:26;1.80;;;1.70;;
24663;SDS011;12791;50.992;13.788;2023-04-15T13:15:54;2.00;;;1.90;;
24663;SDS011;12791;50.992;13.788;2023-04-15T13:18:20;2.10;;;1.92;;
24663;SDS011;12791;50.992;13.788;2023-04-15T13:20:47;1.95;;;1.85;;
24663;SDS011;12791;50.992;13.788;2023-04-15T13:23:14;2.38;;;2.00;;
24663;SDS011;12791;50.992;13.788;2023-04-15T13:25:41;2.35;;;2.15;;
24663;SDS011;12791;50.992;13.788;2023-04-15T13:28:09;1.60;;;1.50;;
24663;SDS011;12791;50.992;13.788;2023-04-15T13:30:36;2.45;;;2.25;;
24663;SDS011;12791;50.992;13.788;2023-04-15T13:33:04;2.17;;;2.08;;
24663;SDS011;12791;50.992;13.788;2023-04-15T13:35:31;2.17;;;1.95;;
24663;SDS011;12791;50.992;13.788;2023-04-15T13:37:58;2.15;;;2.05;;
24663;SDS011;12791;50.992;13.788;2023-04-15T13:40:24;1.83;;;1.73;;
24663;SDS011;12791;50.992;13.788;2023-04-15T13:42:51;1.90;;;1.80;;
24663;SDS011;12791;50.992;13.788;2023-04-15T13:45:18;1.80;;;1.70;;
24663;SDS011;12791;50.992;13.788;2023-04-15T13:47:44;1.88;;;1.77;;
24663;SDS011;12791;50.992;13.788;2023-04-15T13:50:12;2.00;;;1.90;;
24663;SDS011;12791;50.992;13.788;2023-04-15T13:52:39;1.85;;;1.65;;
24663;SDS011;12791;50.992;13.788;2023-04-15T13:55:06;2.42;;;2.22;;
24663;SDS011;12791;50.992;13.788;2023-04-15T13:57:33;3.00;;;2.80;;
24663;SDS011;12791;50.992;13.788;2023-04-15T14:00:00;15.70;;;13.75;;
24663;SDS011;12791;50.992;13.788;2023-04-15T14:02:28;27.25;;;24.67;;
24663;SDS011;12791;50.992;13.788;2023-04-15T14:04:54;11.65;;;10.75;;
24663;SDS011;12791;50.992;13.788;2023-04-15T14:07:22;4.00;;;3.67;;
24663;SDS011;12791;50.992;13.788;2023-04-15T14:09:49;2.38;;;2.17;;
24663;SDS011;12791;50.992;13.788;2023-04-15T14:12:16;1.92;;;1.83;;
24663;SDS011;12791;50.992;13.788;2023-04-15T14:14:43;1.83;;;1.73;;
24663;SDS011;12791;50.992;13.788;2023-04-15T14:17:10;1.70;;;1.60;;
24663;SDS011;12791;50.992;13.788;2023-04-15T14:19:37;1.50;;;1.40;;
24663;SDS011;12791;50.992;13.788;2023-04-15T14:22:04;1.25;;;1.17;;
24663;SDS011;12791;50.992;13.788;2023-04-15T14:24:32;1.25;;;1.15;;
24663;SDS011;12791;50.992;13.788;2023-04-15T14:26:58;1.73;;;1.45;;
24663;SDS011;12791;50.992;13.788;2023-04-15T14:29:26;1.30;;;1.20;;
24663;SDS011;12791;50.992;13.788;2023-04-15T14:31:53;1.08;;;1.08;;
24663;SDS011;12791;50.992;13.788;2023-04-15T14:34:21;1.27;;;1.17;;
24663;SDS011;12791;50.992;13.788;2023-04-15T14:36:49;1.95;;;1.20;;
24663;SDS011;12791;50.992;13.788;2023-04-15T14:39:16;0.88;;;0.88;;
24663;SDS011;12791;50.992;13.788;2023-04-15T14:41:44;1.02;;;0.90;;